METAR Data
IDs: Format: Raw Decoded Include TAF

Data at: 2017 UTC 19 May 2019

PAAK 192013Z AUTO 30012KT 10SM SCT021 SCT028 OVC036 05/01 A2999 RMK AO2 RAE09 P0000
PAAK 191856Z AUTO 31018G23KT 10SM FEW024 BKN070 OVC085 05/M01 A2999 RMK AO2 RAB02E15 SLP156 P0000 T00501006
PAAK 191756Z AUTO 31017G20KT 10SM SCT035 OVC065 04/01 A2999 RMK AO2 SLP158 60001 T00440006 10044 20033 53006
PAAK 191733Z AUTO 31017KT 10SM SCT029 BKN035 OVC065 04/01 A2999 RMK AO2
PAAK 191656Z AUTO 31017G22KT 10SM BKN022 BKN027 OVC032 04/01 A2999 RMK AO2 SLP155 T00440011
PAAK 191556Z AUTO 32012KT 10SM BKN027 OVC065 04/01 A2998 RMK AO2 RAE12 SLP153 P0000 T00390006
PAAK 191539Z AUTO 33010KT 10SM FEW021 BKN028 OVC065 03/01 A2998 RMK AO2 RAE12 P0000
PAAK 191520Z AUTO 31012KT 10SM FEW017 BKN035 OVC070 04/01 A2998 RMK AO2 RAE12 P0000
PAAK 191456Z AUTO 30010KT 9SM -RA BKN017 OVC027 04/01 A2998 RMK AO2 RAE19B41 SLP152 P0001 60001 T00390011 58004
PAAK 191356Z AUTO 31011KT 9SM RA BKN020 BKN030 OVC038 04/01 A2999 RMK AO2 RAB52 SLP156 P0000 T00390006
PAAK 191322Z AUTO 30010KT 10SM BKN030 OVC036 04/01 A2999 RMK AO2
PAAK 191309Z AUTO 31015KT 10SM BKN028 OVC035 04/01 A2999 RMK AO2
PAAK 191256Z AUTO 30010KT 10SM FEW026 OVC037 04/00 A2999 RMK AO2 SLP156 T00440000
PAAK 191156Z AUTO 30006KT 10SM OVC037 04/M01 A2999 RMK AO2 SLP156 60000 70007 T00391011 10044 20033 58001
PAAK 190956Z AUTO 31005KT 10SM FEW028 OVC043 03/M01 A2999 RMK AO2 SLP157 T00331006
PAAK 190856Z AUTO 32006KT 10SM OVC043 03/M01 A2999 RMK AO2 RAB0759E14 SLP156 P0000 60000 T00331006 400720022 51014
PAAK 190756Z AUTO 32011KT 10SM FEW029 BKN034 OVC044 04/M01 A2998 RMK AO2 SLP154 T00441006
PAAK 190656Z AUTO 33010KT 10SM BKN045 OVC050 04/M01 A2996 RMK AO2 SLP148 T00441011
PAAK 190556Z AUTO 31010KT 10SM OVC050 04/M02 A2995 RMK AO2 SLP143 T00441017 10072 20044 53007
PAAK 190456Z AUTO 33013KT 10SM FEW048 04/M01 A2994 RMK AO2 SLP139 T00441006
PAAK 190256Z AUTO 31012KT 10SM FEW028 BKN040 OVC050 06/M02 A2993 RMK AO2 SLP135 T00561017 53004
PAAK 190230Z AUTO 33010KT 10SM SCT029 BKN037 OVC046 06/M01 A2993 RMK AO2
PAAK 190213Z AUTO 33012KT 10SM BKN029 BKN033 OVC055 07/00 A2993 RMK AO2
PAAK 190156Z AUTO 30011KT 10SM FEW030 OVC055 06/00 A2992 RMK AO2 SLP132 T00610000
PAAK 190056Z AUTO 34010KT 10SM FEW031 SCT048 OVC060 06/M01 A2992 RMK AO2 RAE2357 SLP133 T00561006
PAAK 182356Z AUTO 16004KT 10SM -RA BKN030 OVC038 05/00 A2992 RMK AO2 RAB46 SLP132 P0000 60003 T00500000 10056 20028 53001
PAAK 182331Z AUTO 12006KT 10SM SCT026 OVC033 05/00 A2991 RMK AO2
PAAK 182310Z AUTO 12005KT 10SM BKN026 OVC033 05/00 A2991 RMK AO2
PAAK 182242Z AUTO 13007KT 10SM SCT027 BKN045 OVC055 06/01 A2991 RMK AO2
PAAK 182052Z AUTO 15004KT 10SM FEW027 SCT035 OVC060 04/01 A2991 RMK AO2 RAE39 P0000
PAAK 181956Z AUTO VRB04KT 8SM -RA BKN016 OVC023 03/01 A2991 RMK AO2 SLP131 P0003 T00330011
PAAK 181856Z AUTO 08005KT 10SM -RA SCT019 OVC029 04/01 A2990 RMK AO2 RAB43 SLP126 P0000 T00390011
PAAK 181835Z AUTO 13003KT 10SM SCT019 BKN027 OVC060 04/01 A2990 RMK AO2
PAAK 181744Z AUTO 00000KT 10SM FEW019 SCT024 SCT060 03/01 A2989 RMK AO2 UPE1657RAB1657E08 P0000
PAAK 181735Z AUTO 20004KT 10SM SCT019 BKN024 BKN060 03/01 A2989 RMK AO2 UPE1657RAB1657E08 P0000
PAAK 181706Z AUTO 00000KT 10SM -RA SCT026 SCT031 03/01 A2989 RMK AO2 UPE1657RAB1657 P0000
PAAK 181656Z AUTO 00000KT 10SM UP BKN026 BKN035 OVC065 03/01 A2989 RMK AO2 UPB55 SLP122 P0000 T00280011
PAAK 181652Z AUTO 00000KT 10SM BKN026 BKN032 OVC065 03/01 A2988 RMK AO2
PAAK 181624Z AUTO 33003KT 10SM SCT030 OVC070 02/01 A2988 RMK AO2 FZRANO
PAAK 181612Z AUTO 00000KT 10SM BKN028 BKN040 OVC070 03/01 A2988 RMK AO2
PAAK 181556Z AUTO 19003KT 10SM SCT028 OVC065 03/01 A2988 RMK AO2 RAE12 SLP121 P0000 T00280006
PAAK 181456Z AUTO 00000KT 10SM -RA OVC060 03/01 A2989 RMK AO2 RAE38B55 SLP122 P0000 60004 T00280011 58009
PAAK 181356Z AUTO 00000KT 10SM -RA SCT018 BKN025 OVC029 03/01 A2990 RMK AO2 SLP126 P0003 T00280011
PAAK 181256Z AUTO 00000KT 8SM -RA BKN022 OVC027 03/02 A2991 RMK AO2 RAB04 SLP129 P0001 T00330017
PAAK 181156Z AUTO 00000KT 10SM BKN025 BKN034 OVC060 03/02 A2992 RMK AO2 SLP132 60000 70004 T00280017 10044 20028 56006
PAAK 181056Z AUTO 20005KT 10SM FEW014 OVC055 03/01 A2992 RMK AO2 SLP133 T00330011
PAAK 180956Z AUTO 20003KT 10SM OVC055 03/02 A2993 RMK AO2 RAB14E34 SLP135 P0000 T00330017